Flugwetter

[source: ADDS]
METAR
LOWL 162320Z AUTO VRB01KT 9999 FEW013 OVC050 M02/M04 Q1018 =
TAF LOWL 162315Z 1700/1724 VRB02KT 6000 BKN016 TX01/1714Z TNM02/1700Z TEMPO 1700/1707 4000 BR PROB40 1702/1709 0300 FZFG VV002 BECMG 1711/1713 8000 NSW SCT015 BKN035 BECMG 1721/1724 5000 -RA BKN014
TAF
TAF LOWL 162315Z 1700/1724 VRB02KT 6000 BKN016 TX01/1714Z TNM02/1700Z TEMPO 1700/1707 4000 BR PROB40 1702/1709 0300 FZFG VV002 BECMG 1711/1713 8000 NSW SCT015 BKN035 BECMG 1721/1724 5000 -RA BKN014 =